sensor_id;sensor_type;location;lat;lon;timestamp;P1;durP1;ratioP1;P2;durP2;ratioP2
63398;SDS011;49533;-34.520;150.798;2023-11-21T00:02:22;2.03;;;1.00;;
63398;SDS011;49533;-34.520;150.798;2023-11-21T00:04:50;2.00;;;0.60;;
63398;SDS011;49533;-34.520;150.798;2023-11-21T00:07:20;1.75;;;0.52;;
63398;SDS011;49533;-34.520;150.798;2023-11-21T00:09:48;2.88;;;1.10;;
63398;SDS011;49533;-34.520;150.798;2023-11-21T00:12:15;2.95;;;1.23;;
63398;SDS011;49533;-34.520;150.798;2023-11-21T00:14:46;1.58;;;0.50;;
63398;SDS011;49533;-34.520;150.798;2023-11-21T00:17:13;2.75;;;0.88;;
63398;SDS011;49533;-34.520;150.798;2023-11-21T00:19:40;3.22;;;0.93;;
63398;SDS011;49533;-34.520;150.798;2023-11-21T00:22:14;1.77;;;0.93;;
63398;SDS011;49533;-34.520;150.798;2023-11-21T00:24:48;3.08;;;0.70;;
63398;SDS011;49533;-34.520;150.798;2023-11-21T00:27:15;1.80;;;0.68;;
63398;SDS011;49533;-34.520;150.798;2023-11-21T00:29:42;2.15;;;0.52;;
63398;SDS011;49533;-34.520;150.798;2023-11-21T00:32:09;2.55;;;0.68;;
63398;SDS011;49533;-34.520;150.798;2023-11-21T00:34:36;0.73;;;0.50;;
63398;SDS011;49533;-34.520;150.798;2023-11-21T00:37:03;1.08;;;0.88;;
63398;SDS011;49533;-34.520;150.798;2023-11-21T00:39:30;1.52;;;0.32;;
63398;SDS011;49533;-34.520;150.798;2023-11-21T00:42:09;1.77;;;0.50;;
63398;SDS011;49533;-34.520;150.798;2023-11-21T00:44:40;2.47;;;0.50;;
63398;SDS011;49533;-34.520;150.798;2023-11-21T00:47:07;0.90;;;0.43;;
63398;SDS011;49533;-34.520;150.798;2023-11-21T00:49:34;1.33;;;0.52;;
63398;SDS011;49533;-34.520;150.798;2023-11-21T00:52:01;1.00;;;0.15;;
63398;SDS011;49533;-34.520;150.798;2023-11-21T00:54:29;0.75;;;0.28;;
63398;SDS011;49533;-34.520;150.798;2023-11-21T00:56:57;2.05;;;0.52;;
63398;SDS011;49533;-34.520;150.798;2023-11-21T00:59:27;0.90;;;0.22;;
63398;SDS011;49533;-34.520;150.798;2023-11-21T01:01:56;0.77;;;0.35;;
63398;SDS011;49533;-34.520;150.798;2023-11-21T01:04:25;0.95;;;0.30;;
63398;SDS011;49533;-34.520;150.798;2023-11-21T01:06:53;0.40;;;0.20;;
63398;SDS011;49533;-34.520;150.798;2023-11-21T01:09:20;0.43;;;0.13;;
63398;SDS011;49533;-34.520;150.798;2023-11-21T01:11:47;1.00;;;0.30;;
63398;SDS011;49533;-34.520;150.798;2023-11-21T01:14:14;0.52;;;0.20;;
63398;SDS011;49533;-34.520;150.798;2023-11-21T01:16:43;1.85;;;0.43;;
63398;SDS011;49533;-34.520;150.798;2023-11-21T01:19:20;0.82;;;0.32;;
63398;SDS011;49533;-34.520;150.798;2023-11-21T01:21:54;0.70;;;0.38;;
63398;SDS011;49533;-34.520;150.798;2023-11-21T01:24:23;0.85;;;0.38;;
63398;SDS011;49533;-34.520;150.798;2023-11-21T01:26:51;1.10;;;0.13;;
63398;SDS011;49533;-34.520;150.798;2023-11-21T01:29:18;0.50;;;0.20;;
63398;SDS011;49533;-34.520;150.798;2023-11-21T01:31:46;0.32;;;0.10;;
63398;SDS011;49533;-34.520;150.798;2023-11-21T01:34:13;1.58;;;0.20;;
63398;SDS011;49533;-34.520;150.798;2023-11-21T01:36:40;0.32;;;0.22;;
63398;SDS011;49533;-34.520;150.798;2023-11-21T01:39:07;1.08;;;0.28;;
63398;SDS011;49533;-34.520;150.798;2023-11-21T01:41:38;1.40;;;0.45;;
63398;SDS011;49533;-34.520;150.798;2023-11-21T01:44:06;1.05;;;0.35;;
63398;SDS011;49533;-34.520;150.798;2023-11-21T01:46:35;3.03;;;0.70;;
63398;SDS011;49533;-34.520;150.798;2023-11-21T01:49:07;2.20;;;0.52;;
63398;SDS011;49533;-34.520;150.798;2023-11-21T01:51:40;1.77;;;0.30;;
63398;SDS011;49533;-34.520;150.798;2023-11-21T01:54:27;2.03;;;0.60;;
63398;SDS011;49533;-34.520;150.798;2023-11-21T01:57:11;1.25;;;0.43;;
63398;SDS011;49533;-34.520;150.798;2023-11-21T02:03:14;2.75;;;0.75;;
63398;SDS011;49533;-34.520;150.798;2023-11-21T02:06:08;1.08;;;0.20;;
63398;SDS011;49533;-34.520;150.798;2023-11-21T02:14:59;1.27;;;0.50;;
63398;SDS011;49533;-34.520;150.798;2023-11-21T02:17:42;0.68;;;0.30;;
63398;SDS011;49533;-34.520;150.798;2023-11-21T02:20:41;0.85;;;0.30;;
63398;SDS011;49533;-34.520;150.798;2023-11-21T02:26:33;1.15;;;0.32;;
63398;SDS011;49533;-34.520;150.798;2023-11-21T02:32:02;0.95;;;0.50;;
63398;SDS011;49533;-34.520;150.798;2023-11-21T02:34:32;1.30;;;0.22;;
63398;SDS011;49533;-34.520;150.798;2023-11-21T02:37:19;1.40;;;0.40;;
63398;SDS011;49533;-34.520;150.798;2023-11-21T02:40:10;0.93;;;0.40;;
63398;SDS011;49533;-34.520;150.798;2023-11-21T02:42:47;0.32;;;0.30;;
63398;SDS011;49533;-34.520;150.798;2023-11-21T02:45:43;1.90;;;0.22;;
63398;SDS011;49533;-34.520;150.798;2023-11-21T02:51:19;0.73;;;0.30;;
63398;SDS011;49533;-34.520;150.798;2023-11-21T02:56:38;0.40;;;0.20;;
63398;SDS011;49533;-34.520;150.798;2023-11-21T02:59:18;0.38;;;0.20;;
63398;SDS011;49533;-34.520;150.798;2023-11-21T03:02:00;0.60;;;0.22;;
63398;SDS011;49533;-34.520;150.798;2023-11-21T03:05:07;0.47;;;0.20;;
63398;SDS011;49533;-34.520;150.798;2023-11-21T03:07:49;0.57;;;0.20;;
63398;SDS011;49533;-34.520;150.798;2023-11-21T03:14:09;0.20;;;0.10;;
63398;SDS011;49533;-34.520;150.798;2023-11-21T03:16:43;0.98;;;0.22;;
63398;SDS011;49533;-34.520;150.798;2023-11-21T03:19:42;1.27;;;0.30;;
63398;SDS011;49533;-34.520;150.798;2023-11-21T03:31:06;1.77;;;0.45;;
63398;SDS011;49533;-34.520;150.798;2023-11-21T03:36:43;0.88;;;0.30;;
63398;SDS011;49533;-34.520;150.798;2023-11-21T03:42:48;1.70;;;0.50;;
63398;SDS011;49533;-34.520;150.798;2023-11-21T03:51:20;4.07;;;1.30;;
63398;SDS011;49533;-34.520;150.798;2023-11-21T03:53:58;4.57;;;0.70;;
63398;SDS011;49533;-34.520;150.798;2023-11-21T03:59:49;2.83;;;0.85;;
63398;SDS011;49533;-34.520;150.798;2023-11-21T04:02:25;3.75;;;0.98;;
63398;SDS011;49533;-34.520;150.798;2023-11-21T04:04:56;2.80;;;0.57;;
63398;SDS011;49533;-34.520;150.798;2023-11-21T04:07:37;7.85;;;1.42;;
63398;SDS011;49533;-34.520;150.798;2023-11-21T04:10:13;3.13;;;1.08;;
63398;SDS011;49533;-34.520;150.798;2023-11-21T04:12:57;3.40;;;0.75;;
63398;SDS011;49533;-34.520;150.798;2023-11-21T04:15:29;4.57;;;1.30;;
63398;SDS011;49533;-34.520;150.798;2023-11-21T04:18:14;4.75;;;0.98;;
63398;SDS011;49533;-34.520;150.798;2023-11-21T04:26:53;5.07;;;0.77;;
63398;SDS011;49533;-34.520;150.798;2023-11-21T04:29:20;5.97;;;0.82;;
63398;SDS011;49533;-34.520;150.798;2023-11-21T04:31:48;8.15;;;2.47;;
63398;SDS011;49533;-34.520;150.798;2023-11-21T04:34:15;3.75;;;1.60;;
63398;SDS011;49533;-34.520;150.798;2023-11-21T04:36:42;5.55;;;1.33;;
63398;SDS011;49533;-34.520;150.798;2023-11-21T04:39:09;2.70;;;0.60;;
63398;SDS011;49533;-34.520;150.798;2023-11-21T04:41:40;5.55;;;1.17;;
63398;SDS011;49533;-34.520;150.798;2023-11-21T04:44:07;2.80;;;0.75;;
63398;SDS011;49533;-34.520;150.798;2023-11-21T04:46:37;3.45;;;0.82;;
63398;SDS011;49533;-34.520;150.798;2023-11-21T04:49:05;4.75;;;0.77;;
63398;SDS011;49533;-34.520;150.798;2023-11-21T04:51:32;1.63;;;0.45;;
63398;SDS011;49533;-34.520;150.798;2023-11-21T04:53:59;4.63;;;0.60;;
63398;SDS011;49533;-34.520;150.798;2023-11-21T04:56:29;2.10;;;0.55;;
63398;SDS011;49533;-34.520;150.798;2023-11-21T04:58:56;3.08;;;0.98;;
63398;SDS011;49533;-34.520;150.798;2023-11-21T05:01:23;1.85;;;0.65;;
63398;SDS011;49533;-34.520;150.798;2023-11-21T05:03:51;5.05;;;1.10;;
63398;SDS011;49533;-34.520;150.798;2023-11-21T05:06:18;4.10;;;0.60;;
63398;SDS011;49533;-34.520;150.798;2023-11-21T05:08:48;3.88;;;0.73;;
63398;SDS011;49533;-34.520;150.798;2023-11-21T05:11:28;1.40;;;0.43;;
63398;SDS011;49533;-34.520;150.798;2023-11-21T05:13:55;3.88;;;0.95;;
63398;SDS011;49533;-34.520;150.798;2023-11-21T05:16:25;1.80;;;0.55;;
63398;SDS011;49533;-34.520;150.798;2023-11-21T05:18:55;6.32;;;0.60;;
63398;SDS011;49533;-34.520;150.798;2023-11-21T05:21:26;2.35;;;0.65;;
63398;SDS011;49533;-34.520;150.798;2023-11-21T05:23:55;2.38;;;0.57;;
63398;SDS011;49533;-34.520;150.798;2023-11-21T05:26:33;1.95;;;0.50;;
63398;SDS011;49533;-34.520;150.798;2023-11-21T05:29:04;1.08;;;0.40;;
63398;SDS011;49533;-34.520;150.798;2023-11-21T05:31:59;5.57;;;1.25;;
63398;SDS011;49533;-34.520;150.798;2023-11-21T05:34:41;2.63;;;0.77;;
63398;SDS011;49533;-34.520;150.798;2023-11-21T05:40:16;5.05;;;1.10;;
63398;SDS011;49533;-34.520;150.798;2023-11-21T05:43:08;4.80;;;0.70;;
63398;SDS011;49533;-34.520;150.798;2023-11-21T05:45:39;4.32;;;0.88;;
63398;SDS011;49533;-34.520;150.798;2023-11-21T05:48:13;2.42;;;1.00;;
63398;SDS011;49533;-34.520;150.798;2023-11-21T05:50:58;1.90;;;0.52;;
63398;SDS011;49533;-34.520;150.798;2023-11-21T05:53:31;2.70;;;0.30;;
63398;SDS011;49533;-34.520;150.798;2023-11-21T05:56:08;0.77;;;0.60;;
63398;SDS011;49533;-34.520;150.798;2023-11-21T05:58:37;1.13;;;0.60;;
63398;SDS011;49533;-34.520;150.798;2023-11-21T06:01:19;2.42;;;0.70;;
63398;SDS011;49533;-34.520;150.798;2023-11-21T06:04:09;1.92;;;0.47;;
63398;SDS011;49533;-34.520;150.798;2023-11-21T06:06:40;1.48;;;0.50;;
63398;SDS011;49533;-34.520;150.798;2023-11-21T06:09:25;1.02;;;0.52;;
63398;SDS011;49533;-34.520;150.798;2023-11-21T06:12:03;3.08;;;0.88;;
63398;SDS011;49533;-34.520;150.798;2023-11-21T06:14:41;1.10;;;0.28;;
63398;SDS011;49533;-34.520;150.798;2023-11-21T06:17:12;1.97;;;0.47;;
63398;SDS011;49533;-34.520;150.798;2023-11-21T06:20:12;2.38;;;0.70;;
63398;SDS011;49533;-34.520;150.798;2023-11-21T06:23:10;0.88;;;0.25;;
63398;SDS011;49533;-34.520;150.798;2023-11-21T06:25:42;0.90;;;0.30;;
63398;SDS011;49533;-34.520;150.798;2023-11-21T06:28:21;2.67;;;0.60;;
63398;SDS011;49533;-34.520;150.798;2023-11-21T06:30:51;1.60;;;0.32;;
63398;SDS011;49533;-34.520;150.798;2023-11-21T06:36:31;2.47;;;0.73;;
63398;SDS011;49533;-34.520;150.798;2023-11-21T06:39:01;0.95;;;0.30;;
63398;SDS011;49533;-34.520;150.798;2023-11-21T06:41:34;0.93;;;0.40;;
63398;SDS011;49533;-34.520;150.798;2023-11-21T06:44:04;1.85;;;0.50;;
63398;SDS011;49533;-34.520;150.798;2023-11-21T06:46:31;2.42;;;0.77;;
63398;SDS011;49533;-34.520;150.798;2023-11-21T06:48:59;1.80;;;0.68;;
63398;SDS011;49533;-34.520;150.798;2023-11-21T06:51:26;1.60;;;0.50;;
63398;SDS011;49533;-34.520;150.798;2023-11-21T06:53:53;1.83;;;0.43;;
63398;SDS011;49533;-34.520;150.798;2023-11-21T06:56:20;1.25;;;0.65;;
63398;SDS011;49533;-34.520;150.798;2023-11-21T06:58:47;0.63;;;0.20;;
63398;SDS011;49533;-34.520;150.798;2023-11-21T07:01:14;1.92;;;0.50;;
63398;SDS011;49533;-34.520;150.798;2023-11-21T07:03:41;2.25;;;0.80;;
63398;SDS011;49533;-34.520;150.798;2023-11-21T07:06:09;1.63;;;0.50;;
63398;SDS011;49533;-34.520;150.798;2023-11-21T07:08:37;4.03;;;0.90;;
63398;SDS011;49533;-34.520;150.798;2023-11-21T07:11:04;1.80;;;0.70;;
63398;SDS011;49533;-34.520;150.798;2023-11-21T07:13:34;4.72;;;1.80;;
63398;SDS011;49533;-34.520;150.798;2023-11-21T07:16:01;3.00;;;2.17;;
63398;SDS011;49533;-34.520;150.798;2023-11-21T07:18:28;3.53;;;2.15;;
63398;SDS011;49533;-34.520;150.798;2023-11-21T07:20:56;4.93;;;2.53;;
63398;SDS011;49533;-34.520;150.798;2023-11-21T07:23:24;5.25;;;2.90;;
63398;SDS011;49533;-34.520;150.798;2023-11-21T07:25:51;4.18;;;2.78;;
63398;SDS011;49533;-34.520;150.798;2023-11-21T07:28:18;4.15;;;2.03;;
63398;SDS011;49533;-34.520;150.798;2023-11-21T07:30:45;7.38;;;2.75;;
63398;SDS011;49533;-34.520;150.798;2023-11-21T07:33:12;3.65;;;2.72;;
63398;SDS011;49533;-34.520;150.798;2023-11-21T07:35:39;2.92;;;2.30;;
63398;SDS011;49533;-34.520;150.798;2023-11-21T07:38:06;3.13;;;2.13;;
63398;SDS011;49533;-34.520;150.798;2023-11-21T07:40:34;3.85;;;2.30;;
63398;SDS011;49533;-34.520;150.798;2023-11-21T07:43:01;3.13;;;2.03;;
63398;SDS011;49533;-34.520;150.798;2023-11-21T07:45:28;4.82;;;2.03;;
63398;SDS011;49533;-34.520;150.798;2023-11-21T07:47:55;4.05;;;2.30;;
63398;SDS011;49533;-34.520;150.798;2023-11-21T07:50:23;2.95;;;1.92;;
63398;SDS011;49533;-34.520;150.798;2023-11-21T07:52:50;3.30;;;1.70;;
63398;SDS011;49533;-34.520;150.798;2023-11-21T07:55:17;2.33;;;1.73;;
63398;SDS011;49533;-34.520;150.798;2023-11-21T07:57:44;3.60;;;1.65;;
63398;SDS011;49533;-34.520;150.798;2023-11-21T08:00:11;3.65;;;1.70;;
63398;SDS011;49533;-34.520;150.798;2023-11-21T08:02:41;1.67;;;0.95;;
63398;SDS011;49533;-34.520;150.798;2023-11-21T08:05:08;2.58;;;1.65;;
63398;SDS011;49533;-34.520;150.798;2023-11-21T08:07:36;1.38;;;1.23;;
63398;SDS011;49533;-34.520;150.798;2023-11-21T08:10:03;1.50;;;1.20;;
63398;SDS011;49533;-34.520;150.798;2023-11-21T08:12:31;1.92;;;1.10;;
63398;SDS011;49533;-34.520;150.798;2023-11-21T08:14:59;3.13;;;1.45;;
63398;SDS011;49533;-34.520;150.798;2023-11-21T08:17:28;1.95;;;1.05;;
63398;SDS011;49533;-34.520;150.798;2023-11-21T08:19:58;2.10;;;1.10;;
63398;SDS011;49533;-34.520;150.798;2023-11-21T08:22:25;1.92;;;1.10;;
63398;SDS011;49533;-34.520;150.798;2023-11-21T08:24:52;1.67;;;0.80;;
63398;SDS011;49533;-34.520;150.798;2023-11-21T08:27:21;2.72;;;0.90;;
63398;SDS011;49533;-34.520;150.798;2023-11-21T08:29:48;1.15;;;0.90;;
63398;SDS011;49533;-34.520;150.798;2023-11-21T08:32:16;1.48;;;0.93;;
63398;SDS011;49533;-34.520;150.798;2023-11-21T08:34:43;1.42;;;1.17;;
63398;SDS011;49533;-34.520;150.798;2023-11-21T08:37:11;1.77;;;0.93;;
63398;SDS011;49533;-34.520;150.798;2023-11-21T08:39:41;1.23;;;0.73;;
63398;SDS011;49533;-34.520;150.798;2023-11-21T08:42:08;1.13;;;0.80;;
63398;SDS011;49533;-34.520;150.798;2023-11-21T08:44:35;2.25;;;0.93;;
63398;SDS011;49533;-34.520;150.798;2023-11-21T08:47:02;1.85;;;0.52;;
63398;SDS011;49533;-34.520;150.798;2023-11-21T08:49:30;2.13;;;1.10;;
63398;SDS011;49533;-34.520;150.798;2023-11-21T08:51:58;0.93;;;0.60;;
63398;SDS011;49533;-34.520;150.798;2023-11-21T08:54:25;1.35;;;0.77;;
63398;SDS011;49533;-34.520;150.798;2023-11-21T08:56:53;0.80;;;0.40;;
63398;SDS011;49533;-34.520;150.798;2023-11-21T08:59:21;0.30;;;0.30;;
63398;SDS011;49533;-34.520;150.798;2023-11-21T09:01:48;0.55;;;0.40;;
63398;SDS011;49533;-34.520;150.798;2023-11-21T09:04:15;1.02;;;0.82;;
63398;SDS011;49533;-34.520;150.798;2023-11-21T09:06:48;0.80;;;0.45;;
63398;SDS011;49533;-34.520;150.798;2023-11-21T09:09:16;1.73;;;0.52;;
63398;SDS011;49533;-34.520;150.798;2023-11-21T09:11:43;0.80;;;0.50;;
63398;SDS011;49533;-34.520;150.798;2023-11-21T09:14:11;1.15;;;0.63;;
63398;SDS011;49533;-34.520;150.798;2023-11-21T09:16:40;1.27;;;0.63;;
63398;SDS011;49533;-34.520;150.798;2023-11-21T09:19:11;0.98;;;0.68;;
63398;SDS011;49533;-34.520;150.798;2023-11-21T09:21:41;1.17;;;0.50;;
63398;SDS011;49533;-34.520;150.798;2023-11-21T09:24:08;0.65;;;0.38;;
63398;SDS011;49533;-34.520;150.798;2023-11-21T09:26:35;2.50;;;0.52;;
63398;SDS011;49533;-34.520;150.798;2023-11-21T09:29:10;1.75;;;0.68;;
63398;SDS011;49533;-34.520;150.798;2023-11-21T09:31:53;0.80;;;0.57;;
63398;SDS011;49533;-34.520;150.798;2023-11-21T09:34:20;1.55;;;0.52;;
63398;SDS011;49533;-34.520;150.798;2023-11-21T09:36:48;1.02;;;0.38;;
63398;SDS011;49533;-34.520;150.798;2023-11-21T09:39:15;0.82;;;0.30;;
63398;SDS011;49533;-34.520;150.798;2023-11-21T09:41:44;1.58;;;0.60;;
63398;SDS011;49533;-34.520;150.798;2023-11-21T09:44:18;1.27;;;0.55;;
63398;SDS011;49533;-34.520;150.798;2023-11-21T09:46:54;1.15;;;0.43;;
63398;SDS011;49533;-34.520;150.798;2023-11-21T09:49:28;1.35;;;0.75;;
63398;SDS011;49533;-34.520;150.798;2023-11-21T09:52:00;0.65;;;0.30;;
63398;SDS011;49533;-34.520;150.798;2023-11-21T09:54:31;1.70;;;0.60;;
63398;SDS011;49533;-34.520;150.798;2023-11-21T09:57:03;0.38;;;0.38;;
63398;SDS011;49533;-34.520;150.798;2023-11-21T10:02:27;0.65;;;0.30;;
63398;SDS011;49533;-34.520;150.798;2023-11-21T10:05:03;0.80;;;0.40;;
63398;SDS011;49533;-34.520;150.798;2023-11-21T10:07:40;1.20;;;0.52;;
63398;SDS011;49533;-34.520;150.798;2023-11-21T10:10:12;1.60;;;0.68;;
63398;SDS011;49533;-34.520;150.798;2023-11-21T10:12:44;1.65;;;0.57;;
63398;SDS011;49533;-34.520;150.798;2023-11-21T10:15:21;3.08;;;0.57;;
63398;SDS011;49533;-34.520;150.798;2023-11-21T10:17:50;1.45;;;0.60;;
63398;SDS011;49533;-34.520;150.798;2023-11-21T10:20:19;1.65;;;0.70;;
63398;SDS011;49533;-34.520;150.798;2023-11-21T10:22:47;0.70;;;0.40;;
63398;SDS011;49533;-34.520;150.798;2023-11-21T10:25:14;1.10;;;0.60;;
63398;SDS011;49533;-34.520;150.798;2023-11-21T10:27:44;0.55;;;0.55;;
63398;SDS011;49533;-34.520;150.798;2023-11-21T10:30:17;1.17;;;0.22;;
63398;SDS011;49533;-34.520;150.798;2023-11-21T10:32:44;1.13;;;0.55;;
63398;SDS011;49533;-34.520;150.798;2023-11-21T10:35:12;3.15;;;0.75;;
63398;SDS011;49533;-34.520;150.798;2023-11-21T10:37:39;1.00;;;0.40;;
63398;SDS011;49533;-34.520;150.798;2023-11-21T10:40:07;2.08;;;0.40;;
63398;SDS011;49533;-34.520;150.798;2023-11-21T10:42:41;0.90;;;0.50;;
63398;SDS011;49533;-34.520;150.798;2023-11-21T10:45:10;1.73;;;0.40;;
63398;SDS011;49533;-34.520;150.798;2023-11-21T10:47:43;0.88;;;0.55;;
63398;SDS011;49533;-34.520;150.798;2023-11-21T10:50:10;1.70;;;0.40;;
63398;SDS011;49533;-34.520;150.798;2023-11-21T10:52:39;2.88;;;0.30;;
63398;SDS011;49533;-34.520;150.798;2023-11-21T10:55:18;1.40;;;0.60;;
63398;SDS011;49533;-34.520;150.798;2023-11-21T10:57:48;0.77;;;0.45;;
63398;SDS011;49533;-34.520;150.798;2023-11-21T11:00:17;0.68;;;0.22;;
63398;SDS011;49533;-34.520;150.798;2023-11-21T11:02:51;1.85;;;0.65;;
63398;SDS011;49533;-34.520;150.798;2023-11-21T11:05:22;0.30;;;0.20;;
63398;SDS011;49533;-34.520;150.798;2023-11-21T11:07:54;1.38;;;0.75;;
63398;SDS011;49533;-34.520;150.798;2023-11-21T11:10:28;0.43;;;0.43;;
63398;SDS011;49533;-34.520;150.798;2023-11-21T11:12:55;1.80;;;0.43;;
63398;SDS011;49533;-34.520;150.798;2023-11-21T11:15:23;0.45;;;0.38;;
63398;SDS011;49533;-34.520;150.798;2023-11-21T11:17:52;0.98;;;0.30;;
63398;SDS011;49533;-34.520;150.798;2023-11-21T11:20:24;2.22;;;0.52;;
63398;SDS011;49533;-34.520;150.798;2023-11-21T11:28:29;1.30;;;0.60;;
63398;SDS011;49533;-34.520;150.798;2023-11-21T11:36:34;1.23;;;0.55;;
63398;SDS011;49533;-34.520;150.798;2023-11-21T11:39:27;1.00;;;0.55;;
63398;SDS011;49533;-34.520;150.798;2023-11-21T11:41:58;0.70;;;0.30;;
63398;SDS011;49533;-34.520;150.798;2023-11-21T11:47:34;0.80;;;0.40;;
63398;SDS011;49533;-34.520;150.798;2023-11-21T11:50:08;0.55;;;0.40;;
63398;SDS011;49533;-34.520;150.798;2023-11-21T11:55:07;1.17;;;0.47;;
63398;SDS011;49533;-34.520;150.798;2023-11-21T11:57:36;0.68;;;0.40;;
63398;SDS011;49533;-34.520;150.798;2023-11-21T12:00:22;1.40;;;0.40;;
63398;SDS011;49533;-34.520;150.798;2023-11-21T12:02:56;2.08;;;0.70;;
63398;SDS011;49533;-34.520;150.798;2023-11-21T12:05:27;0.43;;;0.30;;
63398;SDS011;49533;-34.520;150.798;2023-11-21T12:08:02;0.85;;;0.52;;
63398;SDS011;49533;-34.520;150.798;2023-11-21T12:10:31;0.93;;;0.40;;
63398;SDS011;49533;-34.520;150.798;2023-11-21T12:13:01;0.90;;;0.50;;
63398;SDS011;49533;-34.520;150.798;2023-11-21T12:15:40;1.15;;;0.57;;
63398;SDS011;49533;-34.520;150.798;2023-11-21T12:18:08;1.17;;;0.60;;
63398;SDS011;49533;-34.520;150.798;2023-11-21T12:20:35;0.32;;;0.32;;
63398;SDS011;49533;-34.520;150.798;2023-11-21T12:23:06;0.80;;;0.60;;
63398;SDS011;49533;-34.520;150.798;2023-11-21T12:25:37;1.38;;;0.57;;
63398;SDS011;49533;-34.520;150.798;2023-11-21T12:28:05;0.93;;;0.57;;
63398;SDS011;49533;-34.520;150.798;2023-11-21T12:30:33;0.95;;;0.50;;
63398;SDS011;49533;-34.520;150.798;2023-11-21T12:33:01;0.52;;;0.40;;
63398;SDS011;49533;-34.520;150.798;2023-11-21T12:35:34;0.90;;;0.45;;
63398;SDS011;49533;-34.520;150.798;2023-11-21T12:38:02;0.30;;;0.30;;
63398;SDS011;49533;-34.520;150.798;2023-11-21T12:40:30;0.98;;;0.40;;
63398;SDS011;49533;-34.520;150.798;2023-11-21T12:42:58;1.45;;;0.55;;
63398;SDS011;49533;-34.520;150.798;2023-11-21T12:45:27;0.68;;;0.35;;
63398;SDS011;49533;-34.520;150.798;2023-11-21T12:47:57;0.40;;;0.32;;
63398;SDS011;49533;-34.520;150.798;2023-11-21T12:50:33;0.35;;;0.35;;
63398;SDS011;49533;-34.520;150.798;2023-11-21T12:53:09;1.15;;;0.70;;
63398;SDS011;49533;-34.520;150.798;2023-11-21T12:55:43;0.90;;;0.38;;
63398;SDS011;49533;-34.520;150.798;2023-11-21T12:58:15;0.20;;;0.20;;
63398;SDS011;49533;-34.520;150.798;2023-11-21T13:00:44;0.40;;;0.40;;
63398;SDS011;49533;-34.520;150.798;2023-11-21T13:03:12;1.30;;;0.35;;
63398;SDS011;49533;-34.520;150.798;2023-11-21T13:05:51;0.32;;;0.30;;
63398;SDS011;49533;-34.520;150.798;2023-11-21T13:08:24;1.13;;;0.40;;
63398;SDS011;49533;-34.520;150.798;2023-11-21T13:10:53;0.95;;;0.45;;
63398;SDS011;49533;-34.520;150.798;2023-11-21T13:13:22;1.55;;;0.60;;
63398;SDS011;49533;-34.520;150.798;2023-11-21T13:15:54;0.57;;;0.32;;
63398;SDS011;49533;-34.520;150.798;2023-11-21T13:18:25;2.17;;;0.65;;
63398;SDS011;49533;-34.520;150.798;2023-11-21T13:20:56;0.35;;;0.35;;
63398;SDS011;49533;-34.520;150.798;2023-11-21T13:23:24;1.05;;;0.40;;
63398;SDS011;49533;-34.520;150.798;2023-11-21T13:25:52;0.30;;;0.30;;
63398;SDS011;49533;-34.520;150.798;2023-11-21T13:28:20;1.55;;;0.47;;
63398;SDS011;49533;-34.520;150.798;2023-11-21T13:30:49;0.80;;;0.30;;
63398;SDS011;49533;-34.520;150.798;2023-11-21T13:33:18;0.70;;;0.50;;
63398;SDS011;49533;-34.520;150.798;2023-11-21T13:38:19;0.93;;;0.30;;
63398;SDS011;49533;-34.520;150.798;2023-11-21T13:40:52;0.40;;;0.40;;
63398;SDS011;49533;-34.520;150.798;2023-11-21T13:43:20;0.43;;;0.43;;
63398;SDS011;49533;-34.520;150.798;2023-11-21T13:45:51;0.80;;;0.40;;
63398;SDS011;49533;-34.520;150.798;2023-11-21T13:48:39;1.40;;;0.50;;
63398;SDS011;49533;-34.520;150.798;2023-11-21T13:51:16;2.38;;;0.80;;
63398;SDS011;49533;-34.520;150.798;2023-11-21T13:53:46;0.43;;;0.30;;
63398;SDS011;49533;-34.520;150.798;2023-11-21T13:56:16;1.17;;;0.45;;
63398;SDS011;49533;-34.520;150.798;2023-11-21T13:58:47;0.70;;;0.60;;
63398;SDS011;49533;-34.520;150.798;2023-11-21T14:01:18;1.02;;;0.65;;
63398;SDS011;49533;-34.520;150.798;2023-11-21T14:04:07;0.90;;;0.40;;
63398;SDS011;49533;-34.520;150.798;2023-11-21T14:06:47;1.67;;;0.40;;
63398;SDS011;49533;-34.520;150.798;2023-11-21T14:09:20;1.20;;;0.45;;
63398;SDS011;49533;-34.520;150.798;2023-11-21T14:11:52;0.75;;;0.65;;
63398;SDS011;49533;-34.520;150.798;2023-11-21T14:14:23;1.58;;;0.43;;
63398;SDS011;49533;-34.520;150.798;2023-11-21T14:16:51;1.88;;;0.50;;
63398;SDS011;49533;-34.520;150.798;2023-11-21T14:19:19;1.27;;;0.40;;
63398;SDS011;49533;-34.520;150.798;2023-11-21T14:21:46;0.30;;;0.30;;
63398;SDS011;49533;-34.520;150.798;2023-11-21T14:24:18;0.73;;;0.45;;
63398;SDS011;49533;-34.520;150.798;2023-11-21T14:26:46;0.98;;;0.43;;
63398;SDS011;49533;-34.520;150.798;2023-11-21T14:29:14;0.43;;;0.43;;
63398;SDS011;49533;-34.520;150.798;2023-11-21T14:31:45;1.52;;;0.73;;
63398;SDS011;49533;-34.520;150.798;2023-11-21T14:34:13;1.27;;;0.50;;
63398;SDS011;49533;-34.520;150.798;2023-11-21T14:36:41;1.52;;;0.45;;
63398;SDS011;49533;-34.520;150.798;2023-11-21T14:39:09;0.52;;;0.28;;
63398;SDS011;49533;-34.520;150.798;2023-11-21T14:41:57;0.98;;;0.40;;
63398;SDS011;49533;-34.520;150.798;2023-11-21T14:44:26;0.75;;;0.20;;
63398;SDS011;49533;-34.520;150.798;2023-11-21T14:46:58;1.00;;;0.47;;
63398;SDS011;49533;-34.520;150.798;2023-11-21T14:49:28;0.77;;;0.40;;
63398;SDS011;49533;-34.520;150.798;2023-11-21T14:52:06;0.52;;;0.40;;
63398;SDS011;49533;-34.520;150.798;2023-11-21T14:54:47;0.68;;;0.30;;
63398;SDS011;49533;-34.520;150.798;2023-11-21T14:57:25;0.38;;;0.30;;
63398;SDS011;49533;-34.520;150.798;2023-11-21T14:59:52;1.13;;;0.52;;
63398;SDS011;49533;-34.520;150.798;2023-11-21T15:02:23;0.30;;;0.30;;
63398;SDS011;49533;-34.520;150.798;2023-11-21T15:05:09;1.83;;;0.40;;
63398;SDS011;49533;-34.520;150.798;2023-11-21T15:07:41;0.40;;;0.40;;
63398;SDS011;49533;-34.520;150.798;2023-11-21T15:10:10;0.65;;;0.25;;
63398;SDS011;49533;-34.520;150.798;2023-11-21T15:12:40;1.38;;;0.47;;
63398;SDS011;49533;-34.520;150.798;2023-11-21T15:15:09;0.80;;;0.30;;
63398;SDS011;49533;-34.520;150.798;2023-11-21T15:17:36;1.80;;;0.30;;
63398;SDS011;49533;-34.520;150.798;2023-11-21T15:20:05;0.75;;;0.30;;
63398;SDS011;49533;-34.520;150.798;2023-11-21T15:22:34;0.35;;;0.22;;
63398;SDS011;49533;-34.520;150.798;2023-11-21T15:25:01;0.50;;;0.28;;
63398;SDS011;49533;-34.520;150.798;2023-11-21T15:27:33;0.70;;;0.30;;
63398;SDS011;49533;-34.520;150.798;2023-11-21T15:30:00;0.82;;;0.45;;
63398;SDS011;49533;-34.520;150.798;2023-11-21T15:32:29;0.30;;;0.30;;
63398;SDS011;49533;-34.520;150.798;2023-11-21T15:34:56;0.30;;;0.28;;
63398;SDS011;49533;-34.520;150.798;2023-11-21T15:37:41;0.30;;;0.20;;
63398;SDS011;49533;-34.520;150.798;2023-11-21T15:40:30;0.40;;;0.20;;
63398;SDS011;49533;-34.520;150.798;2023-11-21T15:43:12;0.10;;;0.10;;
63398;SDS011;49533;-34.520;150.798;2023-11-21T15:46:01;0.50;;;0.40;;
63398;SDS011;49533;-34.520;150.798;2023-11-21T15:48:43;0.68;;;0.45;;
63398;SDS011;49533;-34.520;150.798;2023-11-21T15:57:05;0.55;;;0.25;;
63398;SDS011;49533;-34.520;150.798;2023-11-21T15:59:47;0.50;;;0.30;;
63398;SDS011;49533;-34.520;150.798;2023-11-21T16:02:37;0.22;;;0.20;;
63398;SDS011;49533;-34.520;150.798;2023-11-21T16:08:05;1.13;;;0.38;;
63398;SDS011;49533;-34.520;150.798;2023-11-21T16:10:44;1.25;;;0.50;;